sensor_id;sensor_type;location;lat;lon;timestamp;P1;durP1;ratioP1;P2;durP2;ratioP2
56333;SDS011;42240;53.626;55.886;2023-01-23T00:00:49;0.60;;;0.60;;
56333;SDS011;42240;53.626;55.886;2023-01-23T00:02:22;0.60;;;0.60;;
56333;SDS011;42240;53.626;55.886;2023-01-23T00:03:56;0.60;;;0.60;;
56333;SDS011;42240;53.626;55.886;2023-01-23T00:05:30;0.50;;;0.50;;
56333;SDS011;42240;53.626;55.886;2023-01-23T00:07:03;0.50;;;0.50;;
56333;SDS011;42240;53.626;55.886;2023-01-23T00:08:36;0.60;;;0.60;;
56333;SDS011;42240;53.626;55.886;2023-01-23T00:10:10;0.60;;;0.60;;
56333;SDS011;42240;53.626;55.886;2023-01-23T00:11:43;0.60;;;0.60;;
56333;SDS011;42240;53.626;55.886;2023-01-23T00:13:16;0.53;;;0.53;;
56333;SDS011;42240;53.626;55.886;2023-01-23T00:14:49;0.57;;;0.57;;
56333;SDS011;42240;53.626;55.886;2023-01-23T00:16:23;0.50;;;0.50;;
56333;SDS011;42240;53.626;55.886;2023-01-23T00:17:57;0.60;;;0.60;;
56333;SDS011;42240;53.626;55.886;2023-01-23T00:19:31;0.50;;;0.50;;
56333;SDS011;42240;53.626;55.886;2023-01-23T00:21:04;0.50;;;0.50;;
56333;SDS011;42240;53.626;55.886;2023-01-23T00:22:43;0.50;;;0.50;;
56333;SDS011;42240;53.626;55.886;2023-01-23T00:24:15;0.50;;;0.50;;
56333;SDS011;42240;53.626;55.886;2023-01-23T00:25:49;0.60;;;0.60;;
56333;SDS011;42240;53.626;55.886;2023-01-23T00:27:22;0.50;;;0.50;;
56333;SDS011;42240;53.626;55.886;2023-01-23T00:28:55;0.60;;;0.60;;
56333;SDS011;42240;53.626;55.886;2023-01-23T00:30:28;0.60;;;0.60;;
56333;SDS011;42240;53.626;55.886;2023-01-23T00:32:01;0.50;;;0.50;;
56333;SDS011;42240;53.626;55.886;2023-01-23T00:33:34;0.60;;;0.60;;
56333;SDS011;42240;53.626;55.886;2023-01-23T00:35:07;0.60;;;0.60;;
56333;SDS011;42240;53.626;55.886;2023-01-23T00:36:41;0.50;;;0.50;;
56333;SDS011;42240;53.626;55.886;2023-01-23T00:38:16;0.50;;;0.50;;
56333;SDS011;42240;53.626;55.886;2023-01-23T00:39:50;0.50;;;0.50;;
56333;SDS011;42240;53.626;55.886;2023-01-23T00:41:23;0.50;;;0.50;;
56333;SDS011;42240;53.626;55.886;2023-01-23T00:42:57;0.50;;;0.50;;
56333;SDS011;42240;53.626;55.886;2023-01-23T00:44:30;0.50;;;0.50;;
56333;SDS011;42240;53.626;55.886;2023-01-23T00:46:04;0.60;;;0.60;;
56333;SDS011;42240;53.626;55.886;2023-01-23T00:47:37;0.60;;;0.60;;
56333;SDS011;42240;53.626;55.886;2023-01-23T00:49:10;0.60;;;0.60;;
56333;SDS011;42240;53.626;55.886;2023-01-23T00:50:43;0.50;;;0.50;;
56333;SDS011;42240;53.626;55.886;2023-01-23T00:52:16;0.60;;;0.60;;
56333;SDS011;42240;53.626;55.886;2023-01-23T00:53:49;0.60;;;0.60;;
56333;SDS011;42240;53.626;55.886;2023-01-23T00:55:22;0.50;;;0.50;;
56333;SDS011;42240;53.626;55.886;2023-01-23T00:56:55;0.50;;;0.50;;
56333;SDS011;42240;53.626;55.886;2023-01-23T00:58:28;0.50;;;0.50;;
56333;SDS011;42240;53.626;55.886;2023-01-23T01:00:02;0.50;;;0.50;;
56333;SDS011;42240;53.626;55.886;2023-01-23T01:01:36;0.60;;;0.60;;
56333;SDS011;42240;53.626;55.886;2023-01-23T01:03:09;0.60;;;0.60;;
56333;SDS011;42240;53.626;55.886;2023-01-23T01:04:42;0.50;;;0.50;;
56333;SDS011;42240;53.626;55.886;2023-01-23T01:06:15;0.60;;;0.60;;
56333;SDS011;42240;53.626;55.886;2023-01-23T01:07:48;0.50;;;0.50;;
56333;SDS011;42240;53.626;55.886;2023-01-23T01:09:21;0.50;;;0.50;;
56333;SDS011;42240;53.626;55.886;2023-01-23T01:10:55;0.50;;;0.50;;
56333;SDS011;42240;53.626;55.886;2023-01-23T01:12:28;0.50;;;0.50;;
56333;SDS011;42240;53.626;55.886;2023-01-23T01:14:01;0.60;;;0.60;;
56333;SDS011;42240;53.626;55.886;2023-01-23T01:15:35;0.50;;;0.50;;
56333;SDS011;42240;53.626;55.886;2023-01-23T01:17:09;0.60;;;0.60;;
56333;SDS011;42240;53.626;55.886;2023-01-23T01:18:42;0.50;;;0.50;;
56333;SDS011;42240;53.626;55.886;2023-01-23T01:20:15;0.50;;;0.50;;
56333;SDS011;42240;53.626;55.886;2023-01-23T01:21:49;0.50;;;0.50;;
56333;SDS011;42240;53.626;55.886;2023-01-23T01:23:23;0.50;;;0.50;;
56333;SDS011;42240;53.626;55.886;2023-01-23T01:24:56;0.50;;;0.50;;
56333;SDS011;42240;53.626;55.886;2023-01-23T01:26:29;0.50;;;0.50;;
56333;SDS011;42240;53.626;55.886;2023-01-23T01:28:02;0.50;;;0.50;;
56333;SDS011;42240;53.626;55.886;2023-01-23T01:29:35;0.50;;;0.50;;
56333;SDS011;42240;53.626;55.886;2023-01-23T01:31:10;0.50;;;0.50;;
56333;SDS011;42240;53.626;55.886;2023-01-23T01:32:45;0.50;;;0.50;;
56333;SDS011;42240;53.626;55.886;2023-01-23T01:34:18;0.50;;;0.50;;
56333;SDS011;42240;53.626;55.886;2023-01-23T01:35:54;0.50;;;0.50;;
56333;SDS011;42240;53.626;55.886;2023-01-23T01:37:28;0.50;;;0.50;;
56333;SDS011;42240;53.626;55.886;2023-01-23T01:39:03;0.50;;;0.50;;
56333;SDS011;42240;53.626;55.886;2023-01-23T01:40:37;0.50;;;0.50;;
56333;SDS011;42240;53.626;55.886;2023-01-23T01:42:10;0.60;;;0.60;;
56333;SDS011;42240;53.626;55.886;2023-01-23T01:43:43;0.50;;;0.50;;
56333;SDS011;42240;53.626;55.886;2023-01-23T01:47:27;0.50;;;0.50;;
56333;SDS011;42240;53.626;55.886;2023-01-23T01:49:10;0.50;;;0.50;;
56333;SDS011;42240;53.626;55.886;2023-01-23T01:50:47;0.50;;;0.50;;
56333;SDS011;42240;53.626;55.886;2023-01-23T01:52:20;0.50;;;0.50;;
56333;SDS011;42240;53.626;55.886;2023-01-23T01:53:57;0.50;;;0.50;;
56333;SDS011;42240;53.626;55.886;2023-01-23T01:55:35;0.50;;;0.50;;
56333;SDS011;42240;53.626;55.886;2023-01-23T01:57:10;0.50;;;0.50;;
56333;SDS011;42240;53.626;55.886;2023-01-23T01:59:08;0.50;;;0.50;;
56333;SDS011;42240;53.626;55.886;2023-01-23T02:00:42;0.50;;;0.50;;
56333;SDS011;42240;53.626;55.886;2023-01-23T02:04:03;0.50;;;0.50;;
56333;SDS011;42240;53.626;55.886;2023-01-23T02:05:38;0.50;;;0.50;;
56333;SDS011;42240;53.626;55.886;2023-01-23T02:07:18;0.50;;;0.50;;
56333;SDS011;42240;53.626;55.886;2023-01-23T02:12:06;0.50;;;0.50;;
56333;SDS011;42240;53.626;55.886;2023-01-23T02:13:40;0.50;;;0.50;;
56333;SDS011;42240;53.626;55.886;2023-01-23T02:15:16;0.50;;;0.50;;
56333;SDS011;42240;53.626;55.886;2023-01-23T02:16:51;0.60;;;0.60;;
56333;SDS011;42240;53.626;55.886;2023-01-23T02:18:27;0.53;;;0.53;;
56333;SDS011;42240;53.626;55.886;2023-01-23T02:21:35;0.60;;;0.60;;
56333;SDS011;42240;53.626;55.886;2023-01-23T02:23:18;0.50;;;0.50;;
56333;SDS011;42240;53.626;55.886;2023-01-23T02:25:33;0.50;;;0.50;;
56333;SDS011;42240;53.626;55.886;2023-01-23T02:27:18;0.50;;;0.50;;
56333;SDS011;42240;53.626;55.886;2023-01-23T02:28:51;0.50;;;0.50;;
56333;SDS011;42240;53.626;55.886;2023-01-23T02:30:27;0.60;;;0.60;;
56333;SDS011;42240;53.626;55.886;2023-01-23T02:32:01;0.50;;;0.50;;
56333;SDS011;42240;53.626;55.886;2023-01-23T02:35:09;0.50;;;0.50;;
56333;SDS011;42240;53.626;55.886;2023-01-23T02:36:47;0.50;;;0.50;;
56333;SDS011;42240;53.626;55.886;2023-01-23T02:38:23;0.60;;;0.60;;
56333;SDS011;42240;53.626;55.886;2023-01-23T02:40:00;0.60;;;0.60;;
56333;SDS011;42240;53.626;55.886;2023-01-23T02:41:49;0.60;;;0.60;;
56333;SDS011;42240;53.626;55.886;2023-01-23T02:43:29;0.50;;;0.50;;
56333;SDS011;42240;53.626;55.886;2023-01-23T02:45:09;0.60;;;0.60;;
56333;SDS011;42240;53.626;55.886;2023-01-23T02:46:42;0.60;;;0.60;;
56333;SDS011;42240;53.626;55.886;2023-01-23T02:48:16;0.60;;;0.60;;
56333;SDS011;42240;53.626;55.886;2023-01-23T02:49:49;0.50;;;0.50;;
56333;SDS011;42240;53.626;55.886;2023-01-23T02:51:22;0.50;;;0.50;;
56333;SDS011;42240;53.626;55.886;2023-01-23T02:52:55;0.50;;;0.50;;
56333;SDS011;42240;53.626;55.886;2023-01-23T02:54:29;0.60;;;0.60;;
56333;SDS011;42240;53.626;55.886;2023-01-23T02:56:03;0.50;;;0.50;;
56333;SDS011;42240;53.626;55.886;2023-01-23T02:57:36;0.50;;;0.50;;
56333;SDS011;42240;53.626;55.886;2023-01-23T02:59:09;0.50;;;0.50;;
56333;SDS011;42240;53.626;55.886;2023-01-23T03:01:01;0.50;;;0.50;;
56333;SDS011;42240;53.626;55.886;2023-01-23T03:02:35;0.60;;;0.60;;
56333;SDS011;42240;53.626;55.886;2023-01-23T03:04:09;0.50;;;0.50;;
56333;SDS011;42240;53.626;55.886;2023-01-23T03:05:43;0.60;;;0.60;;
56333;SDS011;42240;53.626;55.886;2023-01-23T03:07:16;0.50;;;0.50;;
56333;SDS011;42240;53.626;55.886;2023-01-23T03:08:49;0.60;;;0.60;;
56333;SDS011;42240;53.626;55.886;2023-01-23T03:10:22;0.60;;;0.60;;
56333;SDS011;42240;53.626;55.886;2023-01-23T03:11:55;0.50;;;0.50;;
56333;SDS011;42240;53.626;55.886;2023-01-23T03:13:28;0.50;;;0.50;;
56333;SDS011;42240;53.626;55.886;2023-01-23T03:15:01;0.50;;;0.50;;
56333;SDS011;42240;53.626;55.886;2023-01-23T03:16:39;0.50;;;0.50;;
56333;SDS011;42240;53.626;55.886;2023-01-23T03:18:15;0.60;;;0.60;;
56333;SDS011;42240;53.626;55.886;2023-01-23T03:19:48;0.60;;;0.60;;
56333;SDS011;42240;53.626;55.886;2023-01-23T03:21:21;0.50;;;0.50;;
56333;SDS011;42240;53.626;55.886;2023-01-23T03:22:55;0.50;;;0.50;;
56333;SDS011;42240;53.626;55.886;2023-01-23T03:24:28;0.57;;;0.57;;
56333;SDS011;42240;53.626;55.886;2023-01-23T03:26:01;0.50;;;0.50;;
56333;SDS011;42240;53.626;55.886;2023-01-23T03:27:35;0.50;;;0.50;;
56333;SDS011;42240;53.626;55.886;2023-01-23T03:29:14;0.50;;;0.50;;
56333;SDS011;42240;53.626;55.886;2023-01-23T03:31:17;0.60;;;0.60;;
56333;SDS011;42240;53.626;55.886;2023-01-23T03:32:50;0.50;;;0.50;;
56333;SDS011;42240;53.626;55.886;2023-01-23T03:34:24;0.60;;;0.60;;
56333;SDS011;42240;53.626;55.886;2023-01-23T03:35:57;0.50;;;0.50;;
56333;SDS011;42240;53.626;55.886;2023-01-23T03:37:30;0.60;;;0.60;;
56333;SDS011;42240;53.626;55.886;2023-01-23T03:39:04;0.50;;;0.50;;
56333;SDS011;42240;53.626;55.886;2023-01-23T03:42:48;0.60;;;0.60;;
56333;SDS011;42240;53.626;55.886;2023-01-23T03:44:28;0.60;;;0.60;;
56333;SDS011;42240;53.626;55.886;2023-01-23T03:46:01;0.50;;;0.50;;
56333;SDS011;42240;53.626;55.886;2023-01-23T03:47:35;0.57;;;0.57;;
56333;SDS011;42240;53.626;55.886;2023-01-23T03:49:10;0.50;;;0.50;;
56333;SDS011;42240;53.626;55.886;2023-01-23T03:50:43;0.50;;;0.50;;
56333;SDS011;42240;53.626;55.886;2023-01-23T03:52:16;0.60;;;0.60;;
56333;SDS011;42240;53.626;55.886;2023-01-23T03:53:49;0.50;;;0.50;;
56333;SDS011;42240;53.626;55.886;2023-01-23T03:55:23;0.60;;;0.60;;
56333;SDS011;42240;53.626;55.886;2023-01-23T03:56:57;0.50;;;0.50;;
56333;SDS011;42240;53.626;55.886;2023-01-23T03:58:53;0.50;;;0.50;;
56333;SDS011;42240;53.626;55.886;2023-01-23T04:00:26;0.60;;;0.60;;
56333;SDS011;42240;53.626;55.886;2023-01-23T04:02:04;0.50;;;0.50;;
56333;SDS011;42240;53.626;55.886;2023-01-23T04:03:37;0.50;;;0.50;;
56333;SDS011;42240;53.626;55.886;2023-01-23T04:05:11;0.60;;;0.60;;
56333;SDS011;42240;53.626;55.886;2023-01-23T04:06:44;0.60;;;0.60;;
56333;SDS011;42240;53.626;55.886;2023-01-23T04:08:17;0.50;;;0.50;;
56333;SDS011;42240;53.626;55.886;2023-01-23T04:09:51;0.60;;;0.60;;
56333;SDS011;42240;53.626;55.886;2023-01-23T04:11:24;0.50;;;0.50;;
56333;SDS011;42240;53.626;55.886;2023-01-23T04:12:58;0.60;;;0.60;;
56333;SDS011;42240;53.626;55.886;2023-01-23T04:14:31;0.57;;;0.57;;
56333;SDS011;42240;53.626;55.886;2023-01-23T04:16:09;0.60;;;0.60;;
56333;SDS011;42240;53.626;55.886;2023-01-23T04:17:42;0.50;;;0.50;;
56333;SDS011;42240;53.626;55.886;2023-01-23T04:19:16;0.60;;;0.60;;
56333;SDS011;42240;53.626;55.886;2023-01-23T04:20:53;0.60;;;0.60;;
56333;SDS011;42240;53.626;55.886;2023-01-23T04:22:27;0.60;;;0.60;;
56333;SDS011;42240;53.626;55.886;2023-01-23T04:24:00;0.50;;;0.50;;
56333;SDS011;42240;53.626;55.886;2023-01-23T04:25:33;0.60;;;0.60;;
56333;SDS011;42240;53.626;55.886;2023-01-23T04:27:08;0.50;;;0.50;;
56333;SDS011;42240;53.626;55.886;2023-01-23T04:28:41;0.60;;;0.60;;
56333;SDS011;42240;53.626;55.886;2023-01-23T04:30:15;0.60;;;0.60;;
56333;SDS011;42240;53.626;55.886;2023-01-23T04:31:50;0.60;;;0.60;;
56333;SDS011;42240;53.626;55.886;2023-01-23T04:33:23;0.50;;;0.50;;
56333;SDS011;42240;53.626;55.886;2023-01-23T04:34:56;0.50;;;0.50;;
56333;SDS011;42240;53.626;55.886;2023-01-23T04:36:30;0.50;;;0.50;;
56333;SDS011;42240;53.626;55.886;2023-01-23T04:38:03;0.60;;;0.60;;
56333;SDS011;42240;53.626;55.886;2023-01-23T04:39:38;0.60;;;0.60;;
56333;SDS011;42240;53.626;55.886;2023-01-23T04:41:21;0.60;;;0.60;;
56333;SDS011;42240;53.626;55.886;2023-01-23T04:43:02;0.50;;;0.50;;
56333;SDS011;42240;53.626;55.886;2023-01-23T04:44:39;0.60;;;0.60;;
56333;SDS011;42240;53.626;55.886;2023-01-23T04:46:31;0.50;;;0.50;;
56333;SDS011;42240;53.626;55.886;2023-01-23T04:48:11;0.50;;;0.50;;
56333;SDS011;42240;53.626;55.886;2023-01-23T04:49:44;0.50;;;0.50;;
56333;SDS011;42240;53.626;55.886;2023-01-23T04:51:17;0.50;;;0.50;;
56333;SDS011;42240;53.626;55.886;2023-01-23T04:52:50;0.50;;;0.50;;
56333;SDS011;42240;53.626;55.886;2023-01-23T04:54:23;0.60;;;0.60;;
56333;SDS011;42240;53.626;55.886;2023-01-23T04:55:57;0.50;;;0.50;;
56333;SDS011;42240;53.626;55.886;2023-01-23T04:57:30;0.50;;;0.50;;
56333;SDS011;42240;53.626;55.886;2023-01-23T04:59:16;0.60;;;0.60;;
56333;SDS011;42240;53.626;55.886;2023-01-23T05:00:49;0.50;;;0.50;;
56333;SDS011;42240;53.626;55.886;2023-01-23T05:02:29;0.60;;;0.60;;
56333;SDS011;42240;53.626;55.886;2023-01-23T05:04:02;0.50;;;0.50;;
56333;SDS011;42240;53.626;55.886;2023-01-23T05:05:36;0.50;;;0.50;;
56333;SDS011;42240;53.626;55.886;2023-01-23T05:07:10;0.50;;;0.50;;
56333;SDS011;42240;53.626;55.886;2023-01-23T05:08:49;0.50;;;0.50;;
56333;SDS011;42240;53.626;55.886;2023-01-23T05:10:42;0.50;;;0.50;;
56333;SDS011;42240;53.626;55.886;2023-01-23T05:12:18;0.50;;;0.50;;
56333;SDS011;42240;53.626;55.886;2023-01-23T05:13:51;0.50;;;0.50;;
56333;SDS011;42240;53.626;55.886;2023-01-23T05:15:25;0.50;;;0.50;;
56333;SDS011;42240;53.626;55.886;2023-01-23T05:17:01;0.50;;;0.50;;
56333;SDS011;42240;53.626;55.886;2023-01-23T05:18:39;0.50;;;0.50;;
56333;SDS011;42240;53.626;55.886;2023-01-23T05:20:12;0.50;;;0.50;;
56333;SDS011;42240;53.626;55.886;2023-01-23T05:21:45;0.50;;;0.50;;
56333;SDS011;42240;53.626;55.886;2023-01-23T05:23:24;0.50;;;0.50;;
56333;SDS011;42240;53.626;55.886;2023-01-23T05:24:58;0.50;;;0.50;;
56333;SDS011;42240;53.626;55.886;2023-01-23T05:26:33;0.40;;;0.40;;
56333;SDS011;42240;53.626;55.886;2023-01-23T05:28:06;0.43;;;0.43;;
56333;SDS011;42240;53.626;55.886;2023-01-23T05:29:47;0.40;;;0.40;;
56333;SDS011;42240;53.626;55.886;2023-01-23T05:31:25;0.40;;;0.40;;
56333;SDS011;42240;53.626;55.886;2023-01-23T05:33:16;0.40;;;0.40;;
56333;SDS011;42240;53.626;55.886;2023-01-23T05:34:49;0.40;;;0.40;;
56333;SDS011;42240;53.626;55.886;2023-01-23T05:36:27;0.50;;;0.50;;
56333;SDS011;42240;53.626;55.886;2023-01-23T05:38:00;0.40;;;0.40;;
56333;SDS011;42240;53.626;55.886;2023-01-23T05:39:33;0.40;;;0.40;;
56333;SDS011;42240;53.626;55.886;2023-01-23T05:41:07;0.40;;;0.40;;
56333;SDS011;42240;53.626;55.886;2023-01-23T05:42:42;0.40;;;0.40;;
56333;SDS011;42240;53.626;55.886;2023-01-23T05:44:38;0.40;;;0.40;;
56333;SDS011;42240;53.626;55.886;2023-01-23T05:46:18;0.40;;;0.40;;
56333;SDS011;42240;53.626;55.886;2023-01-23T05:47:55;0.35;;;0.35;;
56333;SDS011;42240;53.626;55.886;2023-01-23T05:49:28;0.30;;;0.30;;
56333;SDS011;42240;53.626;55.886;2023-01-23T05:51:02;0.40;;;0.40;;
56333;SDS011;42240;53.626;55.886;2023-01-23T05:52:35;0.38;;;0.38;;
56333;SDS011;42240;53.626;55.886;2023-01-23T05:54:09;0.40;;;0.40;;
56333;SDS011;42240;53.626;55.886;2023-01-23T05:55:46;0.40;;;0.40;;
56333;SDS011;42240;53.626;55.886;2023-01-23T05:57:20;0.40;;;0.40;;
56333;SDS011;42240;53.626;55.886;2023-01-23T05:59:11;0.30;;;0.30;;
56333;SDS011;42240;53.626;55.886;2023-01-23T06:00:53;0.30;;;0.30;;
56333;SDS011;42240;53.626;55.886;2023-01-23T06:02:59;0.40;;;0.40;;
56333;SDS011;42240;53.626;55.886;2023-01-23T06:04:51;0.30;;;0.30;;
56333;SDS011;42240;53.626;55.886;2023-01-23T06:06:34;0.30;;;0.30;;
56333;SDS011;42240;53.626;55.886;2023-01-23T06:08:07;0.30;;;0.30;;
56333;SDS011;42240;53.626;55.886;2023-01-23T06:09:40;0.30;;;0.30;;
56333;SDS011;42240;53.626;55.886;2023-01-23T06:11:14;0.38;;;0.38;;
56333;SDS011;42240;53.626;55.886;2023-01-23T06:12:46;0.30;;;0.30;;
56333;SDS011;42240;53.626;55.886;2023-01-23T06:14:19;0.30;;;0.30;;
56333;SDS011;42240;53.626;55.886;2023-01-23T06:15:53;0.30;;;0.30;;
56333;SDS011;42240;53.626;55.886;2023-01-23T06:17:27;0.30;;;0.30;;
56333;SDS011;42240;53.626;55.886;2023-01-23T06:19:00;0.30;;;0.30;;
56333;SDS011;42240;53.626;55.886;2023-01-23T06:20:35;0.30;;;0.30;;
56333;SDS011;42240;53.626;55.886;2023-01-23T06:22:08;0.30;;;0.30;;
56333;SDS011;42240;53.626;55.886;2023-01-23T06:23:59;0.30;;;0.30;;
56333;SDS011;42240;53.626;55.886;2023-01-23T06:25:32;0.30;;;0.30;;
56333;SDS011;42240;53.626;55.886;2023-01-23T06:27:09;0.30;;;0.30;;
56333;SDS011;42240;53.626;55.886;2023-01-23T06:28:42;0.30;;;0.30;;
56333;SDS011;42240;53.626;55.886;2023-01-23T06:30:16;0.30;;;0.30;;
56333;SDS011;42240;53.626;55.886;2023-01-23T06:31:51;0.30;;;0.30;;
56333;SDS011;42240;53.626;55.886;2023-01-23T06:33:25;0.30;;;0.30;;
56333;SDS011;42240;53.626;55.886;2023-01-23T06:35:00;0.30;;;0.30;;
56333;SDS011;42240;53.626;55.886;2023-01-23T06:36:38;0.30;;;0.30;;
56333;SDS011;42240;53.626;55.886;2023-01-23T06:38:12;0.30;;;0.30;;
56333;SDS011;42240;53.626;55.886;2023-01-23T06:39:46;0.30;;;0.30;;
56333;SDS011;42240;53.626;55.886;2023-01-23T06:41:20;0.30;;;0.30;;
56333;SDS011;42240;53.626;55.886;2023-01-23T06:42:55;0.30;;;0.30;;
56333;SDS011;42240;53.626;55.886;2023-01-23T06:44:28;0.40;;;0.40;;
56333;SDS011;42240;53.626;55.886;2023-01-23T06:46:01;0.30;;;0.30;;
56333;SDS011;42240;53.626;55.886;2023-01-23T06:47:35;0.30;;;0.30;;
56333;SDS011;42240;53.626;55.886;2023-01-23T06:49:09;0.40;;;0.40;;
56333;SDS011;42240;53.626;55.886;2023-01-23T06:50:42;0.40;;;0.40;;
56333;SDS011;42240;53.626;55.886;2023-01-23T06:52:17;0.40;;;0.40;;
56333;SDS011;42240;53.626;55.886;2023-01-23T06:53:51;0.40;;;0.40;;
56333;SDS011;42240;53.626;55.886;2023-01-23T06:55:25;0.40;;;0.40;;
56333;SDS011;42240;53.626;55.886;2023-01-23T06:56:58;0.40;;;0.40;;
56333;SDS011;42240;53.626;55.886;2023-01-23T06:58:32;0.35;;;0.35;;
56333;SDS011;42240;53.626;55.886;2023-01-23T07:00:07;0.40;;;0.40;;
56333;SDS011;42240;53.626;55.886;2023-01-23T07:01:42;0.40;;;0.40;;
56333;SDS011;42240;53.626;55.886;2023-01-23T07:05:09;0.50;;;0.50;;
56333;SDS011;42240;53.626;55.886;2023-01-23T07:06:42;0.40;;;0.40;;
56333;SDS011;42240;53.626;55.886;2023-01-23T07:08:18;0.40;;;0.40;;
56333;SDS011;42240;53.626;55.886;2023-01-23T07:09:51;0.40;;;0.40;;
56333;SDS011;42240;53.626;55.886;2023-01-23T07:11:27;0.40;;;0.40;;
56333;SDS011;42240;53.626;55.886;2023-01-23T07:13:01;0.40;;;0.40;;
56333;SDS011;42240;53.626;55.886;2023-01-23T07:14:34;0.40;;;0.40;;
56333;SDS011;42240;53.626;55.886;2023-01-23T07:16:07;0.40;;;0.40;;
56333;SDS011;42240;53.626;55.886;2023-01-23T07:17:42;0.40;;;0.40;;
56333;SDS011;42240;53.626;55.886;2023-01-23T07:19:15;0.40;;;0.40;;
56333;SDS011;42240;53.626;55.886;2023-01-23T07:20:48;0.40;;;0.40;;
56333;SDS011;42240;53.626;55.886;2023-01-23T07:22:22;0.40;;;0.40;;
56333;SDS011;42240;53.626;55.886;2023-01-23T07:23:55;0.40;;;0.40;;
56333;SDS011;42240;53.626;55.886;2023-01-23T07:25:28;0.40;;;0.40;;
56333;SDS011;42240;53.626;55.886;2023-01-23T07:27:01;0.43;;;0.43;;
56333;SDS011;42240;53.626;55.886;2023-01-23T07:28:35;0.50;;;0.50;;
56333;SDS011;42240;53.626;55.886;2023-01-23T07:30:09;0.40;;;0.40;;
56333;SDS011;42240;53.626;55.886;2023-01-23T07:31:42;0.40;;;0.40;;
56333;SDS011;42240;53.626;55.886;2023-01-23T07:33:15;0.40;;;0.40;;
56333;SDS011;42240;53.626;55.886;2023-01-23T07:34:49;0.50;;;0.50;;
56333;SDS011;42240;53.626;55.886;2023-01-23T07:36:23;0.40;;;0.40;;
56333;SDS011;42240;53.626;55.886;2023-01-23T07:37:56;0.40;;;0.40;;
56333;SDS011;42240;53.626;55.886;2023-01-23T07:39:29;0.40;;;0.40;;
56333;SDS011;42240;53.626;55.886;2023-01-23T07:41:02;0.50;;;0.50;;
56333;SDS011;42240;53.626;55.886;2023-01-23T07:42:36;0.50;;;0.50;;
56333;SDS011;42240;53.626;55.886;2023-01-23T07:44:19;0.50;;;0.50;;
56333;SDS011;42240;53.626;55.886;2023-01-23T07:45:53;0.50;;;0.50;;
56333;SDS011;42240;53.626;55.886;2023-01-23T07:47:29;0.40;;;0.40;;
56333;SDS011;42240;53.626;55.886;2023-01-23T07:49:02;0.50;;;0.50;;
56333;SDS011;42240;53.626;55.886;2023-01-23T07:50:35;0.40;;;0.40;;
56333;SDS011;42240;53.626;55.886;2023-01-23T07:52:09;0.50;;;0.50;;
56333;SDS011;42240;53.626;55.886;2023-01-23T07:53:42;0.40;;;0.40;;
56333;SDS011;42240;53.626;55.886;2023-01-23T07:55:15;0.50;;;0.50;;
56333;SDS011;42240;53.626;55.886;2023-01-23T07:56:49;0.50;;;0.50;;
56333;SDS011;42240;53.626;55.886;2023-01-23T07:58:22;0.40;;;0.40;;
56333;SDS011;42240;53.626;55.886;2023-01-23T07:59:55;0.50;;;0.50;;
56333;SDS011;42240;53.626;55.886;2023-01-23T08:01:28;0.40;;;0.40;;
56333;SDS011;42240;53.626;55.886;2023-01-23T08:03:01;0.40;;;0.40;;
56333;SDS011;42240;53.626;55.886;2023-01-23T08:04:34;0.50;;;0.50;;
56333;SDS011;42240;53.626;55.886;2023-01-23T08:06:07;0.50;;;0.50;;
56333;SDS011;42240;53.626;55.886;2023-01-23T08:07:41;0.40;;;0.40;;
56333;SDS011;42240;53.626;55.886;2023-01-23T08:09:14;0.50;;;0.50;;
56333;SDS011;42240;53.626;55.886;2023-01-23T08:10:47;0.50;;;0.50;;
56333;SDS011;42240;53.626;55.886;2023-01-23T08:12:20;0.50;;;0.50;;
56333;SDS011;42240;53.626;55.886;2023-01-23T08:13:53;0.50;;;0.50;;
56333;SDS011;42240;53.626;55.886;2023-01-23T08:15:26;0.50;;;0.50;;
56333;SDS011;42240;53.626;55.886;2023-01-23T08:16:59;0.40;;;0.40;;
56333;SDS011;42240;53.626;55.886;2023-01-23T08:18:33;0.50;;;0.50;;
56333;SDS011;42240;53.626;55.886;2023-01-23T08:20:06;0.45;;;0.45;;
56333;SDS011;42240;53.626;55.886;2023-01-23T08:21:39;0.43;;;0.43;;
56333;SDS011;42240;53.626;55.886;2023-01-23T08:23:12;0.50;;;0.50;;
56333;SDS011;42240;53.626;55.886;2023-01-23T08:24:45;0.40;;;0.40;;
56333;SDS011;42240;53.626;55.886;2023-01-23T08:26:19;0.47;;;0.47;;
56333;SDS011;42240;53.626;55.886;2023-01-23T08:27:52;0.40;;;0.40;;
56333;SDS011;42240;53.626;55.886;2023-01-23T08:29:25;0.50;;;0.50;;
56333;SDS011;42240;53.626;55.886;2023-01-23T08:31:00;0.40;;;0.40;;
56333;SDS011;42240;53.626;55.886;2023-01-23T08:32:37;0.50;;;0.50;;
56333;SDS011;42240;53.626;55.886;2023-01-23T08:34:10;0.40;;;0.40;;
56333;SDS011;42240;53.626;55.886;2023-01-23T08:35:50;0.45;;;0.45;;
56333;SDS011;42240;53.626;55.886;2023-01-23T08:37:24;0.50;;;0.50;;
56333;SDS011;42240;53.626;55.886;2023-01-23T08:38:57;0.50;;;0.50;;
56333;SDS011;42240;53.626;55.886;2023-01-23T08:40:31;0.40;;;0.40;;
56333;SDS011;42240;53.626;55.886;2023-01-23T08:42:04;0.50;;;0.50;;
56333;SDS011;42240;53.626;55.886;2023-01-23T08:43:37;0.50;;;0.50;;
56333;SDS011;42240;53.626;55.886;2023-01-23T08:45:12;0.50;;;0.50;;
56333;SDS011;42240;53.626;55.886;2023-01-23T08:46:45;0.40;;;0.40;;
56333;SDS011;42240;53.626;55.886;2023-01-23T08:48:19;0.47;;;0.47;;
56333;SDS011;42240;53.626;55.886;2023-01-23T08:49:53;0.40;;;0.40;;
56333;SDS011;42240;53.626;55.886;2023-01-23T08:51:26;0.40;;;0.40;;
56333;SDS011;42240;53.626;55.886;2023-01-23T08:52:59;0.50;;;0.50;;
56333;SDS011;42240;53.626;55.886;2023-01-23T08:54:32;0.40;;;0.40;;
56333;SDS011;42240;53.626;55.886;2023-01-23T08:56:06;0.40;;;0.40;;
56333;SDS011;42240;53.626;55.886;2023-01-23T08:57:42;0.40;;;0.40;;
56333;SDS011;42240;53.626;55.886;2023-01-23T08:59:15;0.40;;;0.40;;
56333;SDS011;42240;53.626;55.886;2023-01-23T09:00:48;0.50;;;0.50;;
56333;SDS011;42240;53.626;55.886;2023-01-23T09:02:21;0.50;;;0.50;;
56333;SDS011;42240;53.626;55.886;2023-01-23T09:03:55;0.40;;;0.40;;
56333;SDS011;42240;53.626;55.886;2023-01-23T09:05:29;0.40;;;0.40;;
56333;SDS011;42240;53.626;55.886;2023-01-23T09:07:02;0.40;;;0.40;;
56333;SDS011;42240;53.626;55.886;2023-01-23T09:08:35;0.40;;;0.40;;
56333;SDS011;42240;53.626;55.886;2023-01-23T09:10:09;0.40;;;0.40;;
56333;SDS011;42240;53.626;55.886;2023-01-23T09:11:44;0.40;;;0.40;;
56333;SDS011;42240;53.626;55.886;2023-01-23T09:13:18;0.50;;;0.50;;
56333;SDS011;42240;53.626;55.886;2023-01-23T09:14:51;0.50;;;0.50;;
56333;SDS011;42240;53.626;55.886;2023-01-23T09:16:24;0.40;;;0.40;;
56333;SDS011;42240;53.626;55.886;2023-01-23T09:17:57;0.50;;;0.50;;
56333;SDS011;42240;53.626;55.886;2023-01-23T09:19:30;0.40;;;0.40;;
56333;SDS011;42240;53.626;55.886;2023-01-23T09:21:10;0.43;;;0.43;;
56333;SDS011;42240;53.626;55.886;2023-01-23T09:22:45;0.50;;;0.50;;
56333;SDS011;42240;53.626;55.886;2023-01-23T09:24:18;0.40;;;0.40;;
56333;SDS011;42240;53.626;55.886;2023-01-23T09:25:51;0.40;;;0.40;;
56333;SDS011;42240;53.626;55.886;2023-01-23T09:27:24;0.50;;;0.50;;
56333;SDS011;42240;53.626;55.886;2023-01-23T09:28:58;0.50;;;0.50;;
56333;SDS011;42240;53.626;55.886;2023-01-23T09:30:31;0.40;;;0.40;;
56333;SDS011;42240;53.626;55.886;2023-01-23T09:32:04;0.40;;;0.40;;
56333;SDS011;42240;53.626;55.886;2023-01-23T09:33:37;0.40;;;0.40;;
56333;SDS011;42240;53.626;55.886;2023-01-23T09:35:12;0.40;;;0.40;;
56333;SDS011;42240;53.626;55.886;2023-01-23T09:36:45;0.40;;;0.40;;
56333;SDS011;42240;53.626;55.886;2023-01-23T09:38:18;0.40;;;0.40;;